createdAt,value
2018-11-03T00:00:25.098Z,1023.16
2018-11-03T00:01:25.133Z,1023.13
2018-11-03T00:02:25.166Z,1023.17
2018-11-03T00:03:25.200Z,1023.11
2018-11-03T00:04:25.232Z,1023.11
2018-11-03T00:05:25.265Z,1023.14
2018-11-03T00:06:25.302Z,1023.15
2018-11-03T00:07:25.347Z,1023.18
2018-11-03T00:08:25.366Z,1023.19
2018-11-03T00:09:25.399Z,1023.17
2018-11-03T00:10:25.436Z,1023.21
2018-11-03T00:11:25.466Z,1023.20
2018-11-03T00:12:25.499Z,1023.16
2018-11-03T00:13:25.541Z,1023.13
2018-11-03T00:14:25.570Z,1023.11
2018-11-03T00:15:25.602Z,1023.13
2018-11-03T00:16:25.633Z,1023.12
2018-11-03T00:17:25.667Z,1023.10
2018-11-03T00:18:25.701Z,1023.07
2018-11-03T00:19:25.734Z,1023.05
2018-11-03T00:20:25.767Z,1023.02
2018-11-03T00:21:25.802Z,1023.02
2018-11-03T00:22:25.834Z,1023.02
2018-11-03T00:23:25.874Z,1023.06
2018-11-03T00:24:25.901Z,1023.13
2018-11-03T00:25:25.935Z,1023.13
2018-11-03T00:26:25.988Z,1023.18
2018-11-03T00:27:26.018Z,1023.14
2018-11-03T00:28:26.036Z,1023.12
2018-11-03T00:29:26.070Z,1023.15
2018-11-03T00:30:26.103Z,1023.12
2018-11-03T00:31:26.135Z,1023.13
2018-11-03T00:32:26.169Z,1023.16
2018-11-03T00:33:26.202Z,1023.16
2018-11-03T00:34:26.235Z,1023.16
2018-11-03T00:35:26.270Z,1023.18
2018-11-03T00:36:26.302Z,1023.19
2018-11-03T00:37:26.336Z,1023.23
2018-11-03T00:38:26.370Z,1023.21
2018-11-03T00:39:26.403Z,1023.21
2018-11-03T00:40:26.460Z,1023.21
2018-11-03T00:41:26.471Z,1023.15
2018-11-03T00:42:26.508Z,1023.13
2018-11-03T00:43:26.536Z,1023.13
2018-11-03T00:44:26.569Z,1023.14
2018-11-03T00:45:26.607Z,1023.11
2018-11-03T00:46:26.637Z,1023.14
2018-11-03T00:47:26.708Z,1023.12
2018-11-03T00:48:26.703Z,1023.14
2018-11-03T00:49:26.735Z,1023.13
2018-11-03T00:50:26.769Z,1023.15
2018-11-03T00:51:26.803Z,1023.11
2018-11-03T00:52:26.835Z,1023.16
2018-11-03T00:53:26.873Z,1023.17
2018-11-03T00:54:26.902Z,1023.17
2018-11-03T00:55:26.938Z,1023.16
2018-11-03T00:56:26.978Z,1023.17
2018-11-03T00:57:27.004Z,1023.17
2018-11-03T00:58:27.038Z,1023.15
2018-11-03T00:59:27.071Z,1023.14
2018-11-03T01:00:27.108Z,1023.14
2018-11-03T01:01:27.135Z,1023.11
2018-11-03T01:02:27.169Z,1023.13
2018-11-03T01:03:27.203Z,1023.10
2018-11-03T01:04:27.239Z,1023.07
2018-11-03T01:05:27.269Z,1023.11
2018-11-03T01:06:27.302Z,1023.08
2018-11-03T01:07:27.336Z,1023.11
2018-11-03T01:08:27.368Z,1023.09
2018-11-03T01:09:27.402Z,1023.10
2018-11-03T01:10:27.436Z,1023.12
2018-11-03T01:11:27.468Z,1023.08
2018-11-03T01:12:27.501Z,1023.10
2018-11-03T01:13:27.534Z,1023.13
2018-11-03T01:14:27.570Z,1023.16
2018-11-03T01:15:27.602Z,1023.14
2018-11-03T01:16:27.635Z,1023.14
2018-11-03T01:17:27.670Z,1023.07
2018-11-03T01:18:27.709Z,1023.10
2018-11-03T01:19:27.734Z,1023.07
2018-11-03T01:20:27.767Z,1023.12
2018-11-03T01:21:27.801Z,1023.09
2018-11-03T01:22:27.840Z,1023.11
2018-11-03T01:23:27.956Z,1023.13
2018-11-03T01:24:27.901Z,1023.14
2018-11-03T01:25:27.945Z,1023.12
2018-11-03T01:26:27.991Z,1023.13
2018-11-03T01:27:28.000Z,1023.13
2018-11-03T01:28:28.041Z,1023.18
2018-11-03T01:29:28.067Z,1023.14
2018-11-03T01:30:28.099Z,1023.17
2018-11-03T01:31:28.137Z,1023.21
2018-11-03T01:32:28.215Z,1023.22
2018-11-03T01:33:28.209Z,1023.18
2018-11-03T01:34:28.237Z,1023.20
2018-11-03T01:35:28.266Z,1023.20
2018-11-03T01:36:28.299Z,1023.22
2018-11-03T01:37:28.333Z,1023.21
2018-11-03T01:38:28.367Z,1023.20
2018-11-03T01:39:28.401Z,1023.22
2018-11-03T01:40:28.433Z,1023.23
2018-11-03T01:41:28.465Z,1023.26
2018-11-03T01:42:28.499Z,1023.31
2018-11-03T01:43:28.532Z,1023.30
2018-11-03T01:44:28.566Z,1023.33
2018-11-03T01:45:28.599Z,1023.36
2018-11-03T01:46:28.659Z,1023.38
2018-11-03T01:47:28.667Z,1023.39
2018-11-03T01:48:28.698Z,1023.38
2018-11-03T01:49:28.731Z,1023.36
2018-11-03T01:50:28.765Z,1023.38
2018-11-03T01:51:28.798Z,1023.35
2018-11-03T01:52:28.831Z,1023.34
2018-11-03T01:53:28.864Z,1023.36
2018-11-03T01:54:28.912Z,1023.38
2018-11-03T01:55:28.934Z,1023.38
2018-11-03T01:56:28.964Z,1023.38
2018-11-03T01:57:28.997Z,1023.35
2018-11-03T01:58:29.031Z,1023.34
2018-11-03T01:59:29.064Z,1023.34
2018-11-03T02:00:29.097Z,1023.33
2018-11-03T02:01:29.130Z,1023.34
2018-11-03T02:02:29.163Z,1023.30
2018-11-03T02:03:29.197Z,1023.27
2018-11-03T02:04:29.250Z,1023.29
2018-11-03T02:05:29.262Z,1023.23
2018-11-03T02:06:29.296Z,1023.28
2018-11-03T02:07:29.330Z,1023.27
2018-11-03T02:08:29.361Z,1023.30
2018-11-03T02:09:29.396Z,1023.31
2018-11-03T02:10:29.429Z,1023.34
2018-11-03T02:11:29.462Z,1023.38
2018-11-03T02:12:29.495Z,1023.37
2018-11-03T02:13:29.532Z,1023.41
2018-11-03T02:14:29.561Z,1023.35
2018-11-03T02:15:29.599Z,1023.37
2018-11-03T02:16:29.628Z,1023.34
2018-11-03T02:17:29.661Z,1023.33
2018-11-03T02:18:29.694Z,1023.33
2018-11-03T02:19:29.729Z,1023.38
2018-11-03T02:20:29.761Z,1023.37
2018-11-03T02:21:29.793Z,1023.36
2018-11-03T02:22:29.827Z,1023.36
2018-11-03T02:23:29.859Z,1023.40
2018-11-03T02:24:29.905Z,1023.47
2018-11-03T02:25:29.925Z,1023.49
2018-11-03T02:26:29.958Z,1023.58
2018-11-03T02:27:29.992Z,1023.56
2018-11-03T02:28:30.025Z,1023.52
2018-11-03T02:29:30.103Z,1023.54
2018-11-03T02:30:30.092Z,1023.52
2018-11-03T02:31:30.124Z,1023.54
2018-11-03T02:32:30.157Z,1023.58
2018-11-03T02:33:30.197Z,1023.57
2018-11-03T02:34:30.223Z,1023.64
2018-11-03T02:35:30.257Z,1023.64
2018-11-03T02:36:30.290Z,1023.70
2018-11-03T02:37:30.322Z,1023.74
2018-11-03T02:38:30.358Z,1023.72
2018-11-03T02:39:30.390Z,1023.73
2018-11-03T02:40:30.422Z,1023.72
2018-11-03T02:41:30.455Z,1023.75
2018-11-03T02:42:30.492Z,1023.75
2018-11-03T02:43:30.521Z,1023.77
2018-11-03T02:44:30.555Z,1023.81
2018-11-03T02:45:30.596Z,1023.85
2018-11-03T02:46:30.621Z,1023.78
2018-11-03T02:47:30.655Z,1023.79
2018-11-03T02:48:30.686Z,1023.78
2018-11-03T02:49:30.720Z,1023.81
2018-11-03T02:50:30.754Z,1023.79
2018-11-03T02:51:30.787Z,1023.82
2018-11-03T02:52:30.855Z,1023.82
2018-11-03T02:53:30.869Z,1023.82
2018-11-03T02:54:30.886Z,1023.79
2018-11-03T02:55:30.919Z,1023.81
2018-11-03T02:56:30.952Z,1023.81
2018-11-03T02:57:30.985Z,1023.82
2018-11-03T02:58:31.018Z,1023.80
2018-11-03T02:59:31.052Z,1023.81
2018-11-03T03:00:31.231Z,1023.81
2018-11-03T03:01:31.120Z,1023.83
2018-11-03T03:02:31.155Z,1023.82
2018-11-03T03:03:32.871Z,1023.87
2018-11-03T03:04:31.217Z,1023.89
2018-11-03T03:05:31.248Z,1023.94
2018-11-03T03:06:31.282Z,1023.97
2018-11-03T03:07:31.316Z,1024.05
2018-11-03T03:08:31.348Z,1024.12
2018-11-03T03:09:31.380Z,1024.12
2018-11-03T03:10:31.416Z,1024.14
2018-11-03T03:11:31.448Z,1024.13
2018-11-03T03:12:31.509Z,1024.10
2018-11-03T03:13:31.514Z,1024.14
2018-11-03T03:14:31.546Z,1024.12
2018-11-03T03:15:31.579Z,1024.12
2018-11-03T03:16:31.613Z,1024.16
2018-11-03T03:17:31.694Z,1024.18
2018-11-03T03:18:31.718Z,1024.19
2018-11-03T03:19:31.712Z,1024.21
2018-11-03T03:20:31.755Z,1024.21
2018-11-03T03:21:31.777Z,1024.22
2018-11-03T03:22:31.816Z,1024.17
2018-11-03T03:23:31.844Z,1024.16
2018-11-03T03:24:31.876Z,1024.12
2018-11-03T03:25:31.909Z,1024.10
2018-11-03T03:26:31.945Z,1024.13
2018-11-03T03:27:31.976Z,1024.11
2018-11-03T03:28:32.008Z,1024.13
2018-11-03T03:29:32.102Z,1024.17
2018-11-03T03:30:32.075Z,1024.17
2018-11-03T03:31:32.113Z,1024.15
2018-11-03T03:32:32.140Z,1024.16
2018-11-03T03:33:32.183Z,1024.17
2018-11-03T03:34:32.208Z,1024.18
2018-11-03T03:35:32.240Z,1024.19
2018-11-03T03:36:32.301Z,1024.19
2018-11-03T03:37:32.313Z,1024.15
2018-11-03T03:38:32.338Z,1024.20
2018-11-03T03:39:32.372Z,1024.18
2018-11-03T03:40:32.412Z,1024.15
2018-11-03T03:41:32.437Z,1024.20
2018-11-03T03:42:32.470Z,1024.14
2018-11-03T03:43:32.506Z,1024.12
2018-11-03T03:44:32.536Z,1024.08
2018-11-03T03:45:32.583Z,1024.12
2018-11-03T03:46:32.602Z,1024.19
2018-11-03T03:47:32.636Z,1024.16
2018-11-03T03:48:32.668Z,1024.16
2018-11-03T03:49:32.702Z,1024.16
2018-11-03T03:50:32.735Z,1024.17
2018-11-03T03:51:32.768Z,1024.18
2018-11-03T03:52:32.799Z,1024.18
2018-11-03T03:53:32.833Z,1024.17
2018-11-03T03:54:32.865Z,1024.18
2018-11-03T03:55:32.900Z,1024.22
2018-11-03T03:56:32.947Z,1024.22
2018-11-03T03:57:32.964Z,1024.20
2018-11-03T03:58:32.997Z,1024.15
2018-11-03T03:59:33.033Z,1024.18
2018-11-03T04:00:33.063Z,1024.15
2018-11-03T04:01:33.097Z,1024.09
2018-11-03T04:02:33.130Z,1024.08
2018-11-03T04:03:33.162Z,1024.13
2018-11-03T04:04:33.194Z,1024.09
2018-11-03T04:05:33.227Z,1024.09
2018-11-03T04:06:33.262Z,1024.09
2018-11-03T04:07:33.294Z,1024.09
2018-11-03T04:08:33.325Z,1024.10
2018-11-03T04:09:33.361Z,1024.08
2018-11-03T04:10:33.397Z,1024.09
2018-11-03T04:11:33.425Z,1024.07
2018-11-03T04:12:33.496Z,1024.06
2018-11-03T04:13:33.491Z,1024.04
2018-11-03T04:14:33.530Z,1024.04
2018-11-03T04:15:33.560Z,1024.05
2018-11-03T04:16:33.589Z,1024.05
2018-11-03T04:17:33.626Z,1024.02
2018-11-03T04:18:33.655Z,1024.02
2018-11-03T04:19:33.690Z,1024.03
2018-11-03T04:20:33.721Z,1023.99
2018-11-03T04:21:33.753Z,1024.00
2018-11-03T04:22:33.787Z,1023.99
2018-11-03T04:23:33.823Z,1023.99
2018-11-03T04:24:33.852Z,1024.00
2018-11-03T04:25:33.885Z,1024.01
2018-11-03T04:26:33.917Z,1024.04
2018-11-03T04:27:33.952Z,1024.06
2018-11-03T04:28:34.024Z,1024.10
2018-11-03T04:29:34.066Z,1024.14
2018-11-03T04:30:34.049Z,1024.11
2018-11-03T04:31:34.082Z,1024.13
2018-11-03T04:32:34.115Z,1024.14
2018-11-03T04:33:34.149Z,1024.16
2018-11-03T04:34:34.180Z,1024.16
2018-11-03T04:35:34.213Z,1024.14
2018-11-03T04:36:34.245Z,1024.14
2018-11-03T04:37:34.279Z,1024.19
2018-11-03T04:38:34.314Z,1024.20
2018-11-03T04:39:34.346Z,1024.20
2018-11-03T04:40:34.377Z,1024.18
2018-11-03T04:41:34.441Z,1024.18
2018-11-03T04:42:34.445Z,1024.21
2018-11-03T04:43:34.477Z,1024.21
2018-11-03T04:44:34.510Z,1024.21
2018-11-03T04:45:34.560Z,1024.24
2018-11-03T04:46:34.575Z,1024.29
2018-11-03T04:47:34.608Z,1024.29
2018-11-03T04:48:34.649Z,1024.29
2018-11-03T04:49:34.672Z,1024.29
2018-11-03T04:50:34.706Z,1024.33
2018-11-03T04:51:34.746Z,1024.34
2018-11-03T04:52:34.771Z,1024.32
2018-11-03T04:53:34.805Z,1024.31
2018-11-03T04:54:34.837Z,1024.34
2018-11-03T04:55:34.871Z,1024.29
2018-11-03T04:56:34.905Z,1024.33
2018-11-03T04:57:34.937Z,1024.35
2018-11-03T04:58:34.969Z,1024.37
2018-11-03T04:59:35.002Z,1024.35
2018-11-03T05:00:35.035Z,1024.39
2018-11-03T05:01:35.067Z,1024.38
2018-11-03T05:02:35.144Z,1024.37
2018-11-03T05:03:35.148Z,1024.41
2018-11-03T05:04:35.168Z,1024.43
2018-11-03T05:05:35.198Z,1024.44
2018-11-03T05:06:35.230Z,1024.46
2018-11-03T05:07:35.264Z,1024.50
2018-11-03T05:08:35.296Z,1024.51
2018-11-03T05:09:35.330Z,1024.48
2018-11-03T05:10:35.507Z,1024.52
2018-11-03T05:11:35.395Z,1024.54
2018-11-03T05:12:35.428Z,1024.51
2018-11-03T05:13:35.461Z,1024.53
2018-11-03T05:14:35.494Z,1024.57
2018-11-03T05:15:35.530Z,1024.58
2018-11-03T05:16:35.558Z,1024.55
2018-11-03T05:17:35.597Z,1024.51
2018-11-03T05:18:35.625Z,1024.55
2018-11-03T05:19:35.660Z,1024.51
2018-11-03T05:20:35.689Z,1024.52
2018-11-03T05:21:35.722Z,1024.46
2018-11-03T05:22:35.755Z,1024.44
2018-11-03T05:23:35.788Z,1024.41
2018-11-03T05:24:35.820Z,1024.42
2018-11-03T05:25:35.853Z,1024.44
2018-11-03T05:26:35.886Z,1024.46
2018-11-03T05:27:35.919Z,1024.45
2018-11-03T05:28:35.951Z,1024.47
2018-11-03T05:29:35.984Z,1024.46
2018-11-03T05:30:36.019Z,1024.43
2018-11-03T05:31:36.051Z,1024.45
2018-11-03T05:32:36.083Z,1024.43
2018-11-03T05:33:36.116Z,1024.46
2018-11-03T05:34:36.150Z,1024.45
2018-11-03T05:35:36.182Z,1024.47
2018-11-03T05:36:36.213Z,1024.49
2018-11-03T05:37:36.247Z,1024.49
2018-11-03T05:38:36.280Z,1024.54
2018-11-03T05:39:36.312Z,1024.51
2018-11-03T05:40:36.344Z,1024.51
2018-11-03T05:41:36.376Z,1024.51
2018-11-03T05:42:36.418Z,1024.53
2018-11-03T05:43:36.462Z,1024.53
2018-11-03T05:44:36.505Z,1024.56
2018-11-03T05:45:36.508Z,1024.60
2018-11-03T05:46:36.566Z,1024.57
2018-11-03T05:47:36.577Z,1024.56
2018-11-03T05:48:36.607Z,1024.60
2018-11-03T05:49:36.641Z,1024.65
2018-11-03T05:50:36.672Z,1024.64
2018-11-03T05:51:36.704Z,1024.61
2018-11-03T05:52:36.737Z,1024.60
2018-11-03T05:53:36.771Z,1024.63
2018-11-03T05:54:36.803Z,1024.61
2018-11-03T05:55:36.838Z,1024.64
2018-11-03T05:56:36.882Z,1024.65
2018-11-03T05:57:36.903Z,1024.65
2018-11-03T05:58:36.988Z,1024.67
2018-11-03T05:59:36.970Z,1024.67
2018-11-03T06:00:36.999Z,1024.64
2018-11-03T06:01:37.032Z,1024.64
2018-11-03T06:02:37.082Z,1024.65
2018-11-03T06:03:37.097Z,1024.65
2018-11-03T06:04:37.130Z,1024.66
2018-11-03T06:05:37.167Z,1024.66
2018-11-03T06:06:37.195Z,1024.65
2018-11-03T06:07:37.230Z,1024.64
2018-11-03T06:08:37.312Z,1024.63
2018-11-03T06:09:37.294Z,1024.63
2018-11-03T06:10:37.326Z,1024.63
2018-11-03T06:11:37.359Z,1024.62
2018-11-03T06:12:37.393Z,1024.67
2018-11-03T06:13:37.425Z,1024.65
2018-11-03T06:14:37.457Z,1024.65
2018-11-03T06:15:37.600Z,1024.68
2018-11-03T06:16:37.522Z,1024.67
2018-11-03T06:17:37.555Z,1024.72
2018-11-03T06:18:37.589Z,1024.74
2018-11-03T06:19:37.621Z,1024.70
2018-11-03T06:20:37.668Z,1024.70
2018-11-03T06:21:37.686Z,1024.67
2018-11-03T06:22:37.784Z,1024.69
2018-11-03T06:23:37.815Z,1024.71
2018-11-03T06:24:37.785Z,1024.71
2018-11-03T06:25:37.819Z,1024.69
2018-11-03T06:26:37.850Z,1024.72
2018-11-03T06:27:37.900Z,1024.75
2018-11-03T06:28:37.916Z,1024.79
2018-11-03T06:29:37.949Z,1024.79
2018-11-03T06:30:37.980Z,1024.85
2018-11-03T06:31:38.014Z,1024.88
2018-11-03T06:32:38.047Z,1024.87
2018-11-03T06:33:38.079Z,1024.94
2018-11-03T06:34:38.178Z,1024.95
2018-11-03T06:35:38.175Z,1024.91
2018-11-03T06:36:38.180Z,1024.95
2018-11-03T06:37:38.250Z,1024.97
2018-11-03T06:38:38.248Z,1024.95
2018-11-03T06:39:38.276Z,1024.94
2018-11-03T06:40:38.309Z,1024.96
2018-11-03T06:41:38.341Z,1024.98
2018-11-03T06:42:38.377Z,1024.97
2018-11-03T06:43:38.407Z,1025.02
2018-11-03T06:44:38.457Z,1025.04
2018-11-03T06:45:38.471Z,1025.11
2018-11-03T06:46:38.573Z,1025.12
2018-11-03T06:47:38.640Z,1025.09
2018-11-03T06:48:38.570Z,1025.09
2018-11-03T06:49:38.603Z,1025.12
2018-11-03T06:50:38.637Z,1025.12
2018-11-03T06:51:38.669Z,1025.12
2018-11-03T06:52:38.701Z,1025.18
2018-11-03T06:53:38.734Z,1025.16
2018-11-03T06:54:38.767Z,1025.15
2018-11-03T06:55:38.801Z,1025.19
2018-11-03T06:56:38.833Z,1025.20
2018-11-03T06:57:38.865Z,1025.19
2018-11-03T06:58:38.900Z,1025.23
2018-11-03T06:59:38.933Z,1025.21
2018-11-03T07:00:38.978Z,1025.25
2018-11-03T07:01:38.996Z,1025.22
2018-11-03T07:02:39.028Z,1025.21
2018-11-03T07:03:39.062Z,1025.25
2018-11-03T07:04:39.095Z,1025.26
2018-11-03T07:05:39.128Z,1025.27
2018-11-03T07:06:39.165Z,1025.31
2018-11-03T07:07:39.193Z,1025.34
2018-11-03T07:08:39.226Z,1025.36
2018-11-03T07:09:39.261Z,1025.38
2018-11-03T07:10:39.292Z,1025.38
2018-11-03T07:11:39.577Z,1025.42
2018-11-03T07:12:39.544Z,1025.39
2018-11-03T07:13:39.389Z,1025.42
2018-11-03T07:14:39.424Z,1025.42
2018-11-03T07:15:39.460Z,1025.43
2018-11-03T07:16:39.488Z,1025.46
2018-11-03T07:17:39.522Z,1025.46
2018-11-03T07:18:39.558Z,1025.41
2018-11-03T07:19:39.588Z,1025.39
2018-11-03T07:20:39.618Z,1025.39
2018-11-03T07:21:39.681Z,1025.39
2018-11-03T07:22:39.689Z,1025.38
2018-11-03T07:23:39.718Z,1025.37
2018-11-03T07:24:39.756Z,1025.36
2018-11-03T07:25:39.788Z,1025.36
2018-11-03T07:26:39.817Z,1025.35
2018-11-03T07:27:39.850Z,1025.36
2018-11-03T07:28:39.882Z,1025.36
2018-11-03T07:29:39.925Z,1025.40
2018-11-03T07:30:39.948Z,1025.38
2018-11-03T07:31:39.982Z,1025.39
2018-11-03T07:32:40.026Z,1025.37
2018-11-03T07:33:40.047Z,1025.39
2018-11-03T07:34:40.081Z,1025.39
2018-11-03T07:35:40.118Z,1025.39
2018-11-03T07:36:40.145Z,1025.39
2018-11-03T07:37:40.178Z,1025.38
2018-11-03T07:38:40.211Z,1025.37
2018-11-03T07:39:40.245Z,1025.41
2018-11-03T07:40:40.289Z,1025.40
2018-11-03T07:41:40.390Z,1025.47
2018-11-03T07:42:40.452Z,1025.47
2018-11-03T07:43:40.376Z,1025.48
2018-11-03T07:44:40.409Z,1025.46
2018-11-03T07:45:40.443Z,1025.49
2018-11-03T07:46:40.477Z,1025.49
2018-11-03T07:47:40.513Z,1025.49
2018-11-03T07:48:40.596Z,1025.50
2018-11-03T07:49:40.576Z,1025.56
2018-11-03T07:50:40.716Z,1025.54
2018-11-03T07:51:40.654Z,1025.55
2018-11-03T07:52:40.674Z,1025.52
2018-11-03T07:53:40.708Z,1025.52
2018-11-03T07:54:40.796Z,1025.50
2018-11-03T07:55:40.778Z,1025.51
2018-11-03T07:56:40.806Z,1025.49
2018-11-03T07:57:40.842Z,1025.53
2018-11-03T07:58:40.873Z,1025.51
2018-11-03T07:59:40.913Z,1025.53
2018-11-03T08:00:41.008Z,1025.51
2018-11-03T08:01:40.973Z,1025.54
2018-11-03T08:02:41.009Z,1025.50
2018-11-03T08:03:41.039Z,1025.54
2018-11-03T08:04:41.071Z,1025.54
2018-11-03T08:05:41.104Z,1025.48
2018-11-03T08:06:41.138Z,1025.50
2018-11-03T08:07:41.171Z,1025.49
2018-11-03T08:08:41.204Z,1025.47
2018-11-03T08:09:41.237Z,1025.48
2018-11-03T08:10:41.271Z,1025.50
2018-11-03T08:11:41.305Z,1025.48
2018-11-03T08:12:41.338Z,1025.49
2018-11-03T08:13:41.372Z,1025.48
2018-11-03T08:14:41.506Z,1025.48
2018-11-03T08:15:41.489Z,1025.46
2018-11-03T08:16:41.472Z,1025.48
2018-11-03T08:17:41.517Z,1025.50
2018-11-03T08:18:41.542Z,1025.46
2018-11-03T08:19:41.571Z,1025.52
2018-11-03T08:20:41.604Z,1025.47
2018-11-03T08:21:41.638Z,1025.49
2018-11-03T08:22:41.671Z,1025.50
2018-11-03T08:23:41.720Z,1025.52
2018-11-03T08:24:41.741Z,1025.55
2018-11-03T08:25:41.771Z,1025.57
2018-11-03T08:26:41.806Z,1025.56
2018-11-03T08:27:41.838Z,1025.55
2018-11-03T08:28:41.871Z,1025.51
2018-11-03T08:29:41.905Z,1025.55
2018-11-03T08:30:41.940Z,1025.53
2018-11-03T08:31:42.008Z,1025.55
2018-11-03T08:32:42.004Z,1025.58
2018-11-03T08:33:42.037Z,1025.56
2018-11-03T08:34:42.075Z,1025.54
2018-11-03T08:35:42.105Z,1025.52
2018-11-03T08:36:42.137Z,1025.48
2018-11-03T08:37:42.171Z,1025.47
2018-11-03T08:38:42.205Z,1025.51
2018-11-03T08:39:42.296Z,1025.48
2018-11-03T08:40:42.271Z,1025.44
2018-11-03T08:41:42.305Z,1025.46
2018-11-03T08:42:42.345Z,1025.47
2018-11-03T08:43:42.390Z,1025.45
2018-11-03T08:44:42.405Z,1025.45
2018-11-03T08:45:42.439Z,1025.50
2018-11-03T08:46:42.472Z,1025.49
2018-11-03T08:47:42.508Z,1025.54
2018-11-03T08:48:42.623Z,1025.51
2018-11-03T08:49:42.573Z,1025.55
2018-11-03T08:50:42.607Z,1025.50
2018-11-03T08:51:42.640Z,1025.53
2018-11-03T08:52:42.673Z,1025.52
2018-11-03T08:53:42.708Z,1025.58
2018-11-03T08:54:42.742Z,1025.57
2018-11-03T08:55:42.776Z,1025.59
2018-11-03T08:56:42.808Z,1025.62
2018-11-03T08:57:42.842Z,1025.59
2018-11-03T08:58:42.875Z,1025.62
2018-11-03T08:59:43.002Z,1025.58
2018-11-03T09:00:42.943Z,1025.56
2018-11-03T09:01:42.978Z,1025.58
2018-11-03T09:02:43.011Z,1025.57
2018-11-03T09:03:43.047Z,1025.55
2018-11-03T09:04:43.080Z,1025.54
2018-11-03T09:05:43.114Z,1025.55
2018-11-03T09:06:43.157Z,1025.57
2018-11-03T09:07:43.183Z,1025.62
2018-11-03T09:08:43.216Z,1025.68
2018-11-03T09:09:43.248Z,1025.64
2018-11-03T09:10:43.341Z,1025.71
2018-11-03T09:11:43.317Z,1025.72
2018-11-03T09:12:43.352Z,1025.73
2018-11-03T09:13:43.384Z,1025.72
2018-11-03T09:14:43.555Z,1025.76
2018-11-03T09:15:43.454Z,1025.75
2018-11-03T09:16:43.487Z,1025.74
2018-11-03T09:17:43.521Z,1025.71
2018-11-03T09:18:43.554Z,1025.72
2018-11-03T09:19:43.590Z,1025.76
2018-11-03T09:20:43.623Z,1025.73
2018-11-03T09:21:43.670Z,1025.79
2018-11-03T09:22:43.785Z,1025.70
2018-11-03T09:23:43.727Z,1025.70
2018-11-03T09:24:43.760Z,1025.73
2018-11-03T09:25:43.794Z,1025.79
2018-11-03T09:26:43.831Z,1025.78
2018-11-03T09:27:43.865Z,1025.80
2018-11-03T09:28:43.897Z,1025.76
2018-11-03T09:29:43.984Z,1025.77
2018-11-03T09:30:43.969Z,1025.80
2018-11-03T09:31:44.061Z,1025.78
2018-11-03T09:32:44.037Z,1025.82
2018-11-03T09:33:44.072Z,1025.81
2018-11-03T09:34:44.127Z,1025.81
2018-11-03T09:35:44.142Z,1025.78
2018-11-03T09:36:44.179Z,1025.79
2018-11-03T09:37:44.213Z,1025.79
2018-11-03T09:38:44.303Z,1025.76
2018-11-03T09:39:44.283Z,1025.76
2018-11-03T09:40:44.317Z,1025.77
2018-11-03T09:41:44.351Z,1025.74
2018-11-03T09:42:44.389Z,1025.75
2018-11-03T09:43:44.428Z,1025.78
2018-11-03T09:44:44.472Z,1025.75
2018-11-03T09:45:44.495Z,1025.76
2018-11-03T09:46:44.530Z,1025.74
2018-11-03T09:47:44.586Z,1025.78
2018-11-03T09:48:44.601Z,1025.73
2018-11-03T09:49:44.633Z,1025.70
2018-11-03T09:50:44.793Z,1025.74
2018-11-03T09:51:44.706Z,1025.72
2018-11-03T09:52:44.742Z,1025.68
2018-11-03T09:53:44.776Z,1025.70
2018-11-03T09:54:44.863Z,1025.71
2018-11-03T09:55:44.847Z,1025.70
2018-11-03T09:56:44.993Z,1025.67
2018-11-03T09:57:44.916Z,1025.71
2018-11-03T09:58:44.954Z,1025.69
2018-11-03T09:59:44.985Z,1025.70
2018-11-03T10:00:45.022Z,1025.67
2018-11-03T10:01:45.056Z,1025.71
2018-11-03T10:02:45.092Z,1025.70
2018-11-03T10:03:45.129Z,1025.74
2018-11-03T10:04:45.167Z,1025.70
2018-11-03T10:05:45.200Z,1025.72
2018-11-03T10:06:45.340Z,1025.67
2018-11-03T10:07:45.268Z,1025.70
2018-11-03T10:08:45.301Z,1025.71
2018-11-03T10:09:45.338Z,1025.67
2018-11-03T10:10:45.387Z,1025.68
2018-11-03T10:11:45.411Z,1025.62
2018-11-03T10:12:45.553Z,1025.65
2018-11-03T10:13:45.479Z,1025.70
2018-11-03T10:14:45.598Z,1025.62
2018-11-03T10:15:45.561Z,1025.64
2018-11-03T10:16:45.591Z,1025.68
2018-11-03T10:17:45.661Z,1025.58
2018-11-03T10:18:45.663Z,1025.54
2018-11-03T10:19:45.692Z,1025.54
2018-11-03T10:20:45.730Z,1025.49
2018-11-03T10:21:45.765Z,1025.51
2018-11-03T10:22:45.825Z,1025.53
2018-11-03T10:23:45.835Z,1025.51
2018-11-03T10:24:45.872Z,1025.55
2018-11-03T10:25:45.907Z,1025.58
2018-11-03T10:26:45.944Z,1025.58
2018-11-03T10:27:45.979Z,1025.63
2018-11-03T10:28:46.014Z,1025.62
2018-11-03T10:29:46.052Z,1025.60
2018-11-03T10:30:46.092Z,1025.61
2018-11-03T10:31:46.124Z,1025.58
2018-11-03T10:32:46.163Z,1025.61
2018-11-03T10:33:46.302Z,1025.58
2018-11-03T10:34:46.234Z,1025.53
2018-11-03T10:35:46.272Z,1025.56
2018-11-03T10:36:46.305Z,1025.52
2018-11-03T10:37:46.348Z,1025.50
2018-11-03T10:38:46.379Z,1025.51
2018-11-03T10:39:46.419Z,1025.53
2018-11-03T10:40:46.473Z,1025.60
2018-11-03T10:41:46.489Z,1025.62
2018-11-03T10:42:46.920Z,1025.62
2018-11-03T10:43:46.614Z,1025.58
2018-11-03T10:44:46.599Z,1025.61
2018-11-03T10:45:46.636Z,1025.62
2018-11-03T10:46:46.674Z,1025.59
2018-11-03T10:47:46.807Z,1025.58
2018-11-03T10:48:46.745Z,1025.60
2018-11-03T10:49:46.827Z,1025.59
2018-11-03T10:50:46.834Z,1025.62
2018-11-03T10:51:46.859Z,1025.63
2018-11-03T10:52:46.894Z,1025.61
2018-11-03T10:53:47.027Z,1025.62
2018-11-03T10:54:46.968Z,1025.59
2018-11-03T10:55:47.003Z,1025.57
2018-11-03T10:56:47.046Z,1025.59
2018-11-03T10:57:47.078Z,1025.57
2018-11-03T10:58:47.147Z,1025.59
2018-11-03T10:59:47.154Z,1025.55
2018-11-03T11:00:47.186Z,1025.58
2018-11-03T11:01:47.224Z,1025.57
2018-11-03T11:02:47.261Z,1025.54
2018-11-03T11:03:47.297Z,1025.56
2018-11-03T11:04:47.335Z,1025.51
2018-11-03T11:05:47.374Z,1025.50
2018-11-03T11:06:47.413Z,1025.49
2018-11-03T11:07:47.446Z,1025.48
2018-11-03T11:08:47.487Z,1025.45
2018-11-03T11:09:47.520Z,1025.44
2018-11-03T11:10:47.575Z,1025.38
2018-11-03T11:11:47.593Z,1025.40
2018-11-03T11:12:47.630Z,1025.35
2018-11-03T11:13:47.669Z,1025.33
2018-11-03T11:14:47.704Z,1025.28
2018-11-03T11:15:47.754Z,1025.27
2018-11-03T11:16:47.840Z,1025.28
2018-11-03T11:17:47.817Z,1025.28
2018-11-03T11:18:47.899Z,1025.28
2018-11-03T11:19:47.896Z,1025.22
2018-11-03T11:20:47.925Z,1025.20
2018-11-03T11:21:47.965Z,1025.20
2018-11-03T11:22:48.003Z,1025.22
2018-11-03T11:23:48.090Z,1025.19
2018-11-03T11:24:48.102Z,1025.24
2018-11-03T11:25:48.113Z,1025.22
2018-11-03T11:26:48.152Z,1025.24
2018-11-03T11:27:48.186Z,1025.24
2018-11-03T11:28:48.223Z,1025.22
2018-11-03T11:29:48.262Z,1025.25
2018-11-03T11:30:48.298Z,1025.20
2018-11-03T11:31:48.335Z,1025.22
2018-11-03T11:32:48.424Z,1025.22
2018-11-03T11:33:48.411Z,1025.21
2018-11-03T11:34:48.447Z,1025.16
2018-11-03T11:35:48.486Z,1025.19
2018-11-03T11:36:48.523Z,1025.17
2018-11-03T11:37:48.561Z,1025.17
2018-11-03T11:38:48.597Z,1025.16
2018-11-03T11:39:48.637Z,1025.15
2018-11-03T11:40:48.672Z,1025.12
2018-11-03T11:41:48.711Z,1025.09
2018-11-03T11:42:48.757Z,1025.11
2018-11-03T11:43:48.788Z,1025.13
2018-11-03T11:44:48.824Z,1025.17
2018-11-03T11:45:48.861Z,1025.12
2018-11-03T11:46:48.901Z,1025.13
2018-11-03T11:47:48.939Z,1025.14
2018-11-03T11:48:48.976Z,1025.12
2018-11-03T11:49:49.014Z,1025.13
2018-11-03T11:50:49.052Z,1025.11
2018-11-03T11:51:49.098Z,1025.11
2018-11-03T11:52:49.149Z,1025.09
2018-11-03T11:53:49.166Z,1025.10
2018-11-03T11:54:49.259Z,1025.08
2018-11-03T11:55:49.244Z,1025.10
2018-11-03T11:56:49.280Z,1025.10
2018-11-03T11:57:49.319Z,1025.15
2018-11-03T11:58:49.360Z,1025.16
2018-11-03T11:59:49.437Z,1025.14
2018-11-03T12:00:49.557Z,1025.14
2018-11-03T12:01:49.476Z,1025.13
2018-11-03T12:02:49.523Z,1025.09
2018-11-03T12:03:49.595Z,1025.13
2018-11-03T12:04:49.585Z,1025.07
2018-11-03T12:05:49.715Z,1025.08